sensor_id;sensor_type;location;lat;lon;timestamp;temperature;humidity
60723;DHT22;46574;52.818;6.516;2023-05-16T00:00:05;9.00;99.90
60723;DHT22;46574;52.818;6.516;2023-05-16T00:02:34;9.00;99.90
60723;DHT22;46574;52.818;6.516;2023-05-16T00:05:00;9.00;99.90
60723;DHT22;46574;52.818;6.516;2023-05-16T00:07:26;9.00;99.90
60723;DHT22;46574;52.818;6.516;2023-05-16T00:09:51;9.00;99.90
60723;DHT22;46574;52.818;6.516;2023-05-16T00:12:17;8.90;99.90
60723;DHT22;46574;52.818;6.516;2023-05-16T00:14:44;8.90;99.90
60723;DHT22;46574;52.818;6.516;2023-05-16T00:17:09;8.90;99.90
60723;DHT22;46574;52.818;6.516;2023-05-16T00:19:39;8.90;99.90
60723;DHT22;46574;52.818;6.516;2023-05-16T00:22:06;8.90;99.90
60723;DHT22;46574;52.818;6.516;2023-05-16T00:24:33;8.80;99.90
60723;DHT22;46574;52.818;6.516;2023-05-16T00:26:58;8.90;99.90
60723;DHT22;46574;52.818;6.516;2023-05-16T00:29:24;8.80;99.90
60723;DHT22;46574;52.818;6.516;2023-05-16T00:31:50;8.80;99.90
60723;DHT22;46574;52.818;6.516;2023-05-16T00:34:16;8.80;99.90
60723;DHT22;46574;52.818;6.516;2023-05-16T00:36:42;8.80;99.90
60723;DHT22;46574;52.818;6.516;2023-05-16T00:39:08;8.80;99.90
60723;DHT22;46574;52.818;6.516;2023-05-16T00:41:35;8.70;99.90
60723;DHT22;46574;52.818;6.516;2023-05-16T00:44:01;8.70;99.90
60723;DHT22;46574;52.818;6.516;2023-05-16T00:46:27;8.60;99.90
60723;DHT22;46574;52.818;6.516;2023-05-16T00:48:53;8.60;99.90
60723;DHT22;46574;52.818;6.516;2023-05-16T00:51:19;8.60;99.90
60723;DHT22;46574;52.818;6.516;2023-05-16T00:53:44;8.50;99.90
60723;DHT22;46574;52.818;6.516;2023-05-16T00:56:10;8.50;99.90
60723;DHT22;46574;52.818;6.516;2023-05-16T00:58:36;8.50;99.90
60723;DHT22;46574;52.818;6.516;2023-05-16T01:01:02;8.50;99.90
60723;DHT22;46574;52.818;6.516;2023-05-16T01:03:29;8.40;99.90
60723;DHT22;46574;52.818;6.516;2023-05-16T01:05:55;8.40;99.90
60723;DHT22;46574;52.818;6.516;2023-05-16T01:08:21;8.40;99.90
60723;DHT22;46574;52.818;6.516;2023-05-16T01:11:14;8.40;99.90
60723;DHT22;46574;52.818;6.516;2023-05-16T01:13:59;8.40;99.90
60723;DHT22;46574;52.818;6.516;2023-05-16T01:16:36;8.30;99.90
60723;DHT22;46574;52.818;6.516;2023-05-16T01:25:31;8.40;99.90
60723;DHT22;46574;52.818;6.516;2023-05-16T01:28:03;8.30;99.90
60723;DHT22;46574;52.818;6.516;2023-05-16T01:30:38;8.30;99.90
60723;DHT22;46574;52.818;6.516;2023-05-16T01:33:05;8.30;99.90
60723;DHT22;46574;52.818;6.516;2023-05-16T01:35:30;8.20;99.90
60723;DHT22;46574;52.818;6.516;2023-05-16T01:38:15;8.20;99.90
60723;DHT22;46574;52.818;6.516;2023-05-16T01:43:40;8.20;99.90
60723;DHT22;46574;52.818;6.516;2023-05-16T01:46:11;8.20;99.90
60723;DHT22;46574;52.818;6.516;2023-05-16T01:48:47;8.20;99.90
60723;DHT22;46574;52.818;6.516;2023-05-16T01:51:16;8.10;99.90
60723;DHT22;46574;52.818;6.516;2023-05-16T01:53:42;8.10;99.90
60723;DHT22;46574;52.818;6.516;2023-05-16T01:56:14;8.00;99.90
60723;DHT22;46574;52.818;6.516;2023-05-16T01:58:40;8.00;99.90
60723;DHT22;46574;52.818;6.516;2023-05-16T02:01:06;8.00;99.90
60723;DHT22;46574;52.818;6.516;2023-05-16T02:03:33;7.90;99.90
60723;DHT22;46574;52.818;6.516;2023-05-16T02:05:59;7.90;99.90
60723;DHT22;46574;52.818;6.516;2023-05-16T02:08:26;7.90;99.90
60723;DHT22;46574;52.818;6.516;2023-05-16T02:10:52;7.90;99.90
60723;DHT22;46574;52.818;6.516;2023-05-16T02:13:18;7.80;99.90
60723;DHT22;46574;52.818;6.516;2023-05-16T02:15:44;7.80;99.90
60723;DHT22;46574;52.818;6.516;2023-05-16T02:18:10;7.80;99.90
60723;DHT22;46574;52.818;6.516;2023-05-16T02:20:36;7.80;99.90
60723;DHT22;46574;52.818;6.516;2023-05-16T02:23:02;7.80;99.90
60723;DHT22;46574;52.818;6.516;2023-05-16T02:25:28;7.70;99.90
60723;DHT22;46574;52.818;6.516;2023-05-16T02:27:54;7.70;99.90
60723;DHT22;46574;52.818;6.516;2023-05-16T02:30:20;7.70;99.90
60723;DHT22;46574;52.818;6.516;2023-05-16T02:32:46;7.70;99.90
60723;DHT22;46574;52.818;6.516;2023-05-16T02:35:13;7.60;99.90
60723;DHT22;46574;52.818;6.516;2023-05-16T02:37:40;7.60;99.90
60723;DHT22;46574;52.818;6.516;2023-05-16T02:40:06;7.60;99.90
60723;DHT22;46574;52.818;6.516;2023-05-16T02:42:33;7.50;99.90
60723;DHT22;46574;52.818;6.516;2023-05-16T02:44:59;7.50;99.90
60723;DHT22;46574;52.818;6.516;2023-05-16T02:47:25;7.50;99.90
60723;DHT22;46574;52.818;6.516;2023-05-16T02:49:51;7.50;99.90
60723;DHT22;46574;52.818;6.516;2023-05-16T02:52:17;7.50;99.90
60723;DHT22;46574;52.818;6.516;2023-05-16T02:54:43;7.40;99.90
60723;DHT22;46574;52.818;6.516;2023-05-16T02:57:09;7.40;99.90
60723;DHT22;46574;52.818;6.516;2023-05-16T02:59:35;7.40;99.90
60723;DHT22;46574;52.818;6.516;2023-05-16T03:02:01;7.30;99.90
60723;DHT22;46574;52.818;6.516;2023-05-16T03:04:26;7.30;99.90
60723;DHT22;46574;52.818;6.516;2023-05-16T03:06:52;7.20;99.90
60723;DHT22;46574;52.818;6.516;2023-05-16T03:09:18;7.20;99.90
60723;DHT22;46574;52.818;6.516;2023-05-16T03:11:44;7.20;99.90
60723;DHT22;46574;52.818;6.516;2023-05-16T03:14:10;7.10;99.90
60723;DHT22;46574;52.818;6.516;2023-05-16T03:16:36;7.10;99.90
60723;DHT22;46574;52.818;6.516;2023-05-16T03:19:03;7.10;99.90
60723;DHT22;46574;52.818;6.516;2023-05-16T03:21:29;7.10;99.90
60723;DHT22;46574;52.818;6.516;2023-05-16T03:23:56;7.10;99.90
60723;DHT22;46574;52.818;6.516;2023-05-16T03:26:23;7.10;99.90
60723;DHT22;46574;52.818;6.516;2023-05-16T03:28:49;7.00;99.90
60723;DHT22;46574;52.818;6.516;2023-05-16T03:31:15;7.00;99.90
60723;DHT22;46574;52.818;6.516;2023-05-16T03:33:41;7.00;99.90
60723;DHT22;46574;52.818;6.516;2023-05-16T03:36:08;7.00;99.90
60723;DHT22;46574;52.818;6.516;2023-05-16T03:38:34;7.00;99.90
60723;DHT22;46574;52.818;6.516;2023-05-16T03:41:00;7.00;99.90
60723;DHT22;46574;52.818;6.516;2023-05-16T03:43:26;7.00;99.90
60723;DHT22;46574;52.818;6.516;2023-05-16T03:45:51;7.00;99.90
60723;DHT22;46574;52.818;6.516;2023-05-16T03:48:17;7.00;99.90
60723;DHT22;46574;52.818;6.516;2023-05-16T03:50:43;7.00;99.90
60723;DHT22;46574;52.818;6.516;2023-05-16T03:53:09;7.00;99.90
60723;DHT22;46574;52.818;6.516;2023-05-16T03:55:35;7.00;99.90
60723;DHT22;46574;52.818;6.516;2023-05-16T03:58:00;7.00;99.90
60723;DHT22;46574;52.818;6.516;2023-05-16T04:00:26;7.10;99.90
60723;DHT22;46574;52.818;6.516;2023-05-16T04:02:52;7.10;99.90
60723;DHT22;46574;52.818;6.516;2023-05-16T04:05:18;7.10;99.90
60723;DHT22;46574;52.818;6.516;2023-05-16T04:07:43;7.10;99.90
60723;DHT22;46574;52.818;6.516;2023-05-16T04:10:09;7.10;99.90
60723;DHT22;46574;52.818;6.516;2023-05-16T04:12:35;7.10;99.90
60723;DHT22;46574;52.818;6.516;2023-05-16T04:15:02;7.10;99.90
60723;DHT22;46574;52.818;6.516;2023-05-16T04:17:28;7.10;99.90
60723;DHT22;46574;52.818;6.516;2023-05-16T04:19:54;7.10;99.90
60723;DHT22;46574;52.818;6.516;2023-05-16T04:22:23;7.10;99.90
60723;DHT22;46574;52.818;6.516;2023-05-16T04:24:49;7.10;99.90
60723;DHT22;46574;52.818;6.516;2023-05-16T04:27:15;7.20;99.90
60723;DHT22;46574;52.818;6.516;2023-05-16T04:29:40;7.10;99.90
60723;DHT22;46574;52.818;6.516;2023-05-16T04:32:06;7.20;99.90
60723;DHT22;46574;52.818;6.516;2023-05-16T04:34:33;7.20;99.90
60723;DHT22;46574;52.818;6.516;2023-05-16T04:37:04;7.20;99.90
60723;DHT22;46574;52.818;6.516;2023-05-16T04:39:30;7.20;99.90
60723;DHT22;46574;52.818;6.516;2023-05-16T04:41:56;7.20;99.90
60723;DHT22;46574;52.818;6.516;2023-05-16T04:44:25;7.20;99.90
60723;DHT22;46574;52.818;6.516;2023-05-16T04:46:51;7.20;99.90
60723;DHT22;46574;52.818;6.516;2023-05-16T04:49:21;7.20;99.90
60723;DHT22;46574;52.818;6.516;2023-05-16T04:51:46;7.30;99.90
60723;DHT22;46574;52.818;6.516;2023-05-16T04:54:13;7.30;99.90
60723;DHT22;46574;52.818;6.516;2023-05-16T04:56:38;7.40;99.90
60723;DHT22;46574;52.818;6.516;2023-05-16T04:59:04;7.40;99.90
60723;DHT22;46574;52.818;6.516;2023-05-16T05:01:29;7.50;99.90
60723;DHT22;46574;52.818;6.516;2023-05-16T05:03:55;7.50;99.90
60723;DHT22;46574;52.818;6.516;2023-05-16T05:06:21;7.60;99.90
60723;DHT22;46574;52.818;6.516;2023-05-16T05:08:47;7.60;99.90
60723;DHT22;46574;52.818;6.516;2023-05-16T05:11:13;7.70;99.90
60723;DHT22;46574;52.818;6.516;2023-05-16T05:13:39;7.80;99.90
60723;DHT22;46574;52.818;6.516;2023-05-16T05:16:04;7.90;99.90
60723;DHT22;46574;52.818;6.516;2023-05-16T05:18:31;7.90;99.90
60723;DHT22;46574;52.818;6.516;2023-05-16T05:20:57;8.00;99.90
60723;DHT22;46574;52.818;6.516;2023-05-16T05:23:23;8.10;99.90
60723;DHT22;46574;52.818;6.516;2023-05-16T05:25:49;8.10;99.90
60723;DHT22;46574;52.818;6.516;2023-05-16T05:28:15;8.20;99.90
60723;DHT22;46574;52.818;6.516;2023-05-16T05:30:40;8.20;99.90
60723;DHT22;46574;52.818;6.516;2023-05-16T05:33:06;8.30;99.90
60723;DHT22;46574;52.818;6.516;2023-05-16T05:35:32;8.40;99.90
60723;DHT22;46574;52.818;6.516;2023-05-16T05:37:57;8.50;99.90
60723;DHT22;46574;52.818;6.516;2023-05-16T05:40:23;8.60;99.90
60723;DHT22;46574;52.818;6.516;2023-05-16T05:42:48;8.60;99.90
60723;DHT22;46574;52.818;6.516;2023-05-16T05:45:14;8.70;99.90
60723;DHT22;46574;52.818;6.516;2023-05-16T05:47:41;8.70;99.90
60723;DHT22;46574;52.818;6.516;2023-05-16T05:50:07;8.80;99.90
60723;DHT22;46574;52.818;6.516;2023-05-16T05:52:33;8.90;99.90
60723;DHT22;46574;52.818;6.516;2023-05-16T05:54:59;9.00;99.90
60723;DHT22;46574;52.818;6.516;2023-05-16T05:57:25;9.10;99.90
60723;DHT22;46574;52.818;6.516;2023-05-16T05:59:51;9.20;99.90
60723;DHT22;46574;52.818;6.516;2023-05-16T06:02:16;9.30;99.90
60723;DHT22;46574;52.818;6.516;2023-05-16T06:04:42;9.30;99.90
60723;DHT22;46574;52.818;6.516;2023-05-16T06:07:09;9.40;99.90
60723;DHT22;46574;52.818;6.516;2023-05-16T06:09:35;9.40;99.90
60723;DHT22;46574;52.818;6.516;2023-05-16T06:12:00;9.50;99.90
60723;DHT22;46574;52.818;6.516;2023-05-16T06:14:26;9.50;99.90
60723;DHT22;46574;52.818;6.516;2023-05-16T06:16:52;9.70;99.90
60723;DHT22;46574;52.818;6.516;2023-05-16T06:19:17;9.70;99.90
60723;DHT22;46574;52.818;6.516;2023-05-16T06:21:43;9.80;99.90
60723;DHT22;46574;52.818;6.516;2023-05-16T06:24:09;9.80;99.90
60723;DHT22;46574;52.818;6.516;2023-05-16T06:26:36;9.90;99.90
60723;DHT22;46574;52.818;6.516;2023-05-16T06:29:02;10.00;99.90
60723;DHT22;46574;52.818;6.516;2023-05-16T06:31:27;10.00;99.90
60723;DHT22;46574;52.818;6.516;2023-05-16T06:33:53;10.10;99.90
60723;DHT22;46574;52.818;6.516;2023-05-16T06:36:19;10.20;99.90
60723;DHT22;46574;52.818;6.516;2023-05-16T06:38:44;10.30;99.90
60723;DHT22;46574;52.818;6.516;2023-05-16T06:41:10;10.30;99.90
60723;DHT22;46574;52.818;6.516;2023-05-16T06:43:36;10.30;99.90
60723;DHT22;46574;52.818;6.516;2023-05-16T06:46:01;10.40;99.90
60723;DHT22;46574;52.818;6.516;2023-05-16T06:48:28;10.40;99.90
60723;DHT22;46574;52.818;6.516;2023-05-16T06:50:54;10.50;99.90
60723;DHT22;46574;52.818;6.516;2023-05-16T06:53:20;10.60;99.90
60723;DHT22;46574;52.818;6.516;2023-05-16T06:55:46;10.80;99.90
60723;DHT22;46574;52.818;6.516;2023-05-16T06:58:12;10.80;99.90
60723;DHT22;46574;52.818;6.516;2023-05-16T07:00:37;10.70;99.90
60723;DHT22;46574;52.818;6.516;2023-05-16T07:03:03;10.70;99.90
60723;DHT22;46574;52.818;6.516;2023-05-16T07:05:29;10.70;99.90
60723;DHT22;46574;52.818;6.516;2023-05-16T07:07:55;10.60;99.90
60723;DHT22;46574;52.818;6.516;2023-05-16T07:10:21;10.40;99.90
60723;DHT22;46574;52.818;6.516;2023-05-16T07:12:46;10.40;99.90
60723;DHT22;46574;52.818;6.516;2023-05-16T07:15:13;10.50;99.90
60723;DHT22;46574;52.818;6.516;2023-05-16T07:17:38;10.70;99.90
60723;DHT22;46574;52.818;6.516;2023-05-16T07:20:05;10.80;99.90
60723;DHT22;46574;52.818;6.516;2023-05-16T07:22:32;10.90;99.90
60723;DHT22;46574;52.818;6.516;2023-05-16T07:24:58;10.90;99.90
60723;DHT22;46574;52.818;6.516;2023-05-16T07:27:26;11.10;99.90
60723;DHT22;46574;52.818;6.516;2023-05-16T07:29:52;11.30;99.90
60723;DHT22;46574;52.818;6.516;2023-05-16T07:32:17;11.40;99.90
60723;DHT22;46574;52.818;6.516;2023-05-16T07:34:43;11.50;99.90
60723;DHT22;46574;52.818;6.516;2023-05-16T07:37:09;11.60;99.90
60723;DHT22;46574;52.818;6.516;2023-05-16T07:39:38;11.80;99.90
60723;DHT22;46574;52.818;6.516;2023-05-16T07:42:06;11.90;99.90
60723;DHT22;46574;52.818;6.516;2023-05-16T07:44:32;12.00;99.90
60723;DHT22;46574;52.818;6.516;2023-05-16T07:46:57;12.00;99.90
60723;DHT22;46574;52.818;6.516;2023-05-16T07:49:23;11.70;99.90
60723;DHT22;46574;52.818;6.516;2023-05-16T07:51:49;11.30;99.90
60723;DHT22;46574;52.818;6.516;2023-05-16T07:54:14;11.10;99.90
60723;DHT22;46574;52.818;6.516;2023-05-16T07:56:40;10.80;99.90
60723;DHT22;46574;52.818;6.516;2023-05-16T07:59:06;10.70;99.90
60723;DHT22;46574;52.818;6.516;2023-05-16T08:01:32;10.80;99.90
60723;DHT22;46574;52.818;6.516;2023-05-16T08:03:58;11.10;99.90
60723;DHT22;46574;52.818;6.516;2023-05-16T08:06:23;11.20;99.90
60723;DHT22;46574;52.818;6.516;2023-05-16T08:08:49;11.30;99.90
60723;DHT22;46574;52.818;6.516;2023-05-16T08:11:15;11.40;99.90
60723;DHT22;46574;52.818;6.516;2023-05-16T08:13:41;11.60;99.90
60723;DHT22;46574;52.818;6.516;2023-05-16T08:16:06;11.90;99.90
60723;DHT22;46574;52.818;6.516;2023-05-16T08:18:32;12.10;99.90
60723;DHT22;46574;52.818;6.516;2023-05-16T08:20:57;12.20;99.90
60723;DHT22;46574;52.818;6.516;2023-05-16T08:23:23;12.30;99.90
60723;DHT22;46574;52.818;6.516;2023-05-16T08:25:49;12.30;99.90
60723;DHT22;46574;52.818;6.516;2023-05-16T08:28:15;12.20;99.90
60723;DHT22;46574;52.818;6.516;2023-05-16T08:30:41;12.30;99.90
60723;DHT22;46574;52.818;6.516;2023-05-16T08:33:06;12.50;99.90
60723;DHT22;46574;52.818;6.516;2023-05-16T08:35:32;12.60;99.90
60723;DHT22;46574;52.818;6.516;2023-05-16T08:38:00;12.90;99.90
60723;DHT22;46574;52.818;6.516;2023-05-16T08:40:27;13.00;99.90
60723;DHT22;46574;52.818;6.516;2023-05-16T08:42:53;13.20;99.90
60723;DHT22;46574;52.818;6.516;2023-05-16T08:45:19;13.50;99.90
60723;DHT22;46574;52.818;6.516;2023-05-16T08:47:48;13.90;99.90
60723;DHT22;46574;52.818;6.516;2023-05-16T08:50:15;13.30;99.90
60723;DHT22;46574;52.818;6.516;2023-05-16T08:52:42;12.70;99.90
60723;DHT22;46574;52.818;6.516;2023-05-16T08:55:08;12.00;99.90
60723;DHT22;46574;52.818;6.516;2023-05-16T08:57:34;11.60;99.90
60723;DHT22;46574;52.818;6.516;2023-05-16T09:00:01;11.20;99.90
60723;DHT22;46574;52.818;6.516;2023-05-16T09:02:37;11.10;99.90
60723;DHT22;46574;52.818;6.516;2023-05-16T09:05:03;11.50;99.90
60723;DHT22;46574;52.818;6.516;2023-05-16T09:07:30;11.90;99.90
60723;DHT22;46574;52.818;6.516;2023-05-16T09:09:55;12.30;99.90
60723;DHT22;46574;52.818;6.516;2023-05-16T09:12:21;12.70;99.90
60723;DHT22;46574;52.818;6.516;2023-05-16T09:14:47;13.00;99.90
60723;DHT22;46574;52.818;6.516;2023-05-16T09:17:13;13.10;99.90
60723;DHT22;46574;52.818;6.516;2023-05-16T09:19:41;12.90;99.90
60723;DHT22;46574;52.818;6.516;2023-05-16T09:22:12;12.80;99.90
60723;DHT22;46574;52.818;6.516;2023-05-16T09:24:43;13.20;99.90
60723;DHT22;46574;52.818;6.516;2023-05-16T09:27:13;13.50;99.90
60723;DHT22;46574;52.818;6.516;2023-05-16T09:29:40;13.50;99.90
60723;DHT22;46574;52.818;6.516;2023-05-16T09:32:14;13.60;99.90
60723;DHT22;46574;52.818;6.516;2023-05-16T09:34:48;13.70;99.90
60723;DHT22;46574;52.818;6.516;2023-05-16T09:37:14;13.80;99.90
60723;DHT22;46574;52.818;6.516;2023-05-16T09:39:48;14.00;99.90
60723;DHT22;46574;52.818;6.516;2023-05-16T09:42:16;14.30;99.90
60723;DHT22;46574;52.818;6.516;2023-05-16T09:44:47;14.40;99.90
60723;DHT22;46574;52.818;6.516;2023-05-16T09:47:15;14.50;99.90
60723;DHT22;46574;52.818;6.516;2023-05-16T09:49:46;14.10;99.90
60723;DHT22;46574;52.818;6.516;2023-05-16T09:52:13;13.40;99.90
60723;DHT22;46574;52.818;6.516;2023-05-16T09:54:39;13.10;99.90
60723;DHT22;46574;52.818;6.516;2023-05-16T09:57:06;12.90;99.90
60723;DHT22;46574;52.818;6.516;2023-05-16T09:59:38;13.00;99.90
60723;DHT22;46574;52.818;6.516;2023-05-16T10:02:07;13.80;99.90
60723;DHT22;46574;52.818;6.516;2023-05-16T10:04:34;13.70;97.30
60723;DHT22;46574;52.818;6.516;2023-05-16T10:07:02;13.30;99.90
60723;DHT22;46574;52.818;6.516;2023-05-16T10:09:31;13.10;99.40
60723;DHT22;46574;52.818;6.516;2023-05-16T10:11:58;12.90;99.90
60723;DHT22;46574;52.818;6.516;2023-05-16T10:14:27;12.60;99.90
60723;DHT22;46574;52.818;6.516;2023-05-16T10:16:55;12.20;99.90
60723;DHT22;46574;52.818;6.516;2023-05-16T10:19:23;12.00;99.90
60723;DHT22;46574;52.818;6.516;2023-05-16T10:21:53;12.50;99.90
60723;DHT22;46574;52.818;6.516;2023-05-16T10:24:28;12.90;99.90
60723;DHT22;46574;52.818;6.516;2023-05-16T10:26:56;13.20;99.90
60723;DHT22;46574;52.818;6.516;2023-05-16T10:29:22;13.80;99.90
60723;DHT22;46574;52.818;6.516;2023-05-16T10:31:49;13.70;99.90
60723;DHT22;46574;52.818;6.516;2023-05-16T10:34:15;13.40;99.90
60723;DHT22;46574;52.818;6.516;2023-05-16T10:36:43;13.40;99.90
60723;DHT22;46574;52.818;6.516;2023-05-16T10:39:10;13.90;99.90
60723;DHT22;46574;52.818;6.516;2023-05-16T10:41:36;14.20;99.90
60723;DHT22;46574;52.818;6.516;2023-05-16T10:44:02;14.50;99.90
60723;DHT22;46574;52.818;6.516;2023-05-16T10:46:30;14.60;98.00
60723;DHT22;46574;52.818;6.516;2023-05-16T10:48:56;14.70;99.50
60723;DHT22;46574;52.818;6.516;2023-05-16T10:53:51;15.00;93.60
60723;DHT22;46574;52.818;6.516;2023-05-16T10:56:22;14.80;92.20
60723;DHT22;46574;52.818;6.516;2023-05-16T10:58:48;14.40;95.30
60723;DHT22;46574;52.818;6.516;2023-05-16T11:01:33;14.10;94.00
60723;DHT22;46574;52.818;6.516;2023-05-16T11:04:05;13.70;98.80
60723;DHT22;46574;52.818;6.516;2023-05-16T11:09:11;12.50;99.90
60723;DHT22;46574;52.818;6.516;2023-05-16T11:14:26;12.30;99.90
60723;DHT22;46574;52.818;6.516;2023-05-16T11:17:08;13.00;99.90
60723;DHT22;46574;52.818;6.516;2023-05-16T11:19:51;12.90;99.90
60723;DHT22;46574;52.818;6.516;2023-05-16T11:25:03;12.60;99.90
60723;DHT22;46574;52.818;6.516;2023-05-16T11:27:31;12.80;99.90
60723;DHT22;46574;52.818;6.516;2023-05-16T11:30:18;13.30;99.90
60723;DHT22;46574;52.818;6.516;2023-05-16T11:32:45;13.80;99.90
60723;DHT22;46574;52.818;6.516;2023-05-16T11:35:13;13.80;99.90
60723;DHT22;46574;52.818;6.516;2023-05-16T11:37:39;13.60;99.90
60723;DHT22;46574;52.818;6.516;2023-05-16T11:40:07;13.70;99.90
60723;DHT22;46574;52.818;6.516;2023-05-16T11:42:35;14.00;99.90
60723;DHT22;46574;52.818;6.516;2023-05-16T11:45:18;14.60;99.90
60723;DHT22;46574;52.818;6.516;2023-05-16T11:47:46;14.50;99.90
60723;DHT22;46574;52.818;6.516;2023-05-16T11:50:20;14.30;99.90
60723;DHT22;46574;52.818;6.516;2023-05-16T11:52:49;13.90;99.90
60723;DHT22;46574;52.818;6.516;2023-05-16T11:55:20;13.50;99.90
60723;DHT22;46574;52.818;6.516;2023-05-16T11:57:46;13.40;99.90
60723;DHT22;46574;52.818;6.516;2023-05-16T12:00:22;13.20;99.90
60723;DHT22;46574;52.818;6.516;2023-05-16T12:02:51;12.90;99.90
60723;DHT22;46574;52.818;6.516;2023-05-16T12:05:18;12.40;99.90
60723;DHT22;46574;52.818;6.516;2023-05-16T12:07:46;12.00;99.90
60723;DHT22;46574;52.818;6.516;2023-05-16T12:10:15;11.90;99.90
60723;DHT22;46574;52.818;6.516;2023-05-16T12:12:44;12.20;99.90
60723;DHT22;46574;52.818;6.516;2023-05-16T12:15:10;12.50;99.90
60723;DHT22;46574;52.818;6.516;2023-05-16T12:17:37;12.60;99.90
60723;DHT22;46574;52.818;6.516;2023-05-16T12:20:05;12.50;99.90
60723;DHT22;46574;52.818;6.516;2023-05-16T12:22:34;12.60;99.90
60723;DHT22;46574;52.818;6.516;2023-05-16T12:25:26;12.90;99.90
60723;DHT22;46574;52.818;6.516;2023-05-16T12:27:57;13.30;99.90
60723;DHT22;46574;52.818;6.516;2023-05-16T12:30:24;13.50;99.90
60723;DHT22;46574;52.818;6.516;2023-05-16T12:33:10;13.40;99.90
60723;DHT22;46574;52.818;6.516;2023-05-16T12:35:42;13.60;99.90
60723;DHT22;46574;52.818;6.516;2023-05-16T12:38:10;13.60;99.90
60723;DHT22;46574;52.818;6.516;2023-05-16T12:40:36;13.60;99.90
60723;DHT22;46574;52.818;6.516;2023-05-16T12:43:04;13.90;99.90
60723;DHT22;46574;52.818;6.516;2023-05-16T12:45:37;14.10;99.90
60723;DHT22;46574;52.818;6.516;2023-05-16T12:48:11;14.20;99.90
60723;DHT22;46574;52.818;6.516;2023-05-16T12:50:38;14.00;99.90
60723;DHT22;46574;52.818;6.516;2023-05-16T12:53:04;13.70;99.90
60723;DHT22;46574;52.818;6.516;2023-05-16T12:55:34;13.50;99.90
60723;DHT22;46574;52.818;6.516;2023-05-16T12:58:00;13.40;99.90
60723;DHT22;46574;52.818;6.516;2023-05-16T13:00:26;13.40;99.90
60723;DHT22;46574;52.818;6.516;2023-05-16T13:02:51;13.40;99.90
60723;DHT22;46574;52.818;6.516;2023-05-16T13:05:17;13.40;99.90
60723;DHT22;46574;52.818;6.516;2023-05-16T13:07:43;13.50;99.90
60723;DHT22;46574;52.818;6.516;2023-05-16T13:10:10;13.30;99.90
60723;DHT22;46574;52.818;6.516;2023-05-16T13:12:39;13.20;99.90
60723;DHT22;46574;52.818;6.516;2023-05-16T13:15:06;13.20;99.90
60723;DHT22;46574;52.818;6.516;2023-05-16T13:17:33;13.20;99.90
60723;DHT22;46574;52.818;6.516;2023-05-16T13:19:59;13.10;99.90
60723;DHT22;46574;52.818;6.516;2023-05-16T13:22:25;13.10;99.90
60723;DHT22;46574;52.818;6.516;2023-05-16T13:24:51;13.10;99.90
60723;DHT22;46574;52.818;6.516;2023-05-16T13:27:16;13.10;99.90
60723;DHT22;46574;52.818;6.516;2023-05-16T13:29:42;13.20;99.90
60723;DHT22;46574;52.818;6.516;2023-05-16T13:32:08;13.20;99.90
60723;DHT22;46574;52.818;6.516;2023-05-16T13:34:34;13.30;99.90
60723;DHT22;46574;52.818;6.516;2023-05-16T13:37:00;13.40;99.90
60723;DHT22;46574;52.818;6.516;2023-05-16T13:39:26;13.30;99.90
60723;DHT22;46574;52.818;6.516;2023-05-16T13:41:52;13.20;99.90
60723;DHT22;46574;52.818;6.516;2023-05-16T13:44:18;13.10;99.90
60723;DHT22;46574;52.818;6.516;2023-05-16T13:46:44;13.10;99.90
60723;DHT22;46574;52.818;6.516;2023-05-16T13:49:10;13.20;99.90
60723;DHT22;46574;52.818;6.516;2023-05-16T13:51:35;13.70;99.90
60723;DHT22;46574;52.818;6.516;2023-05-16T13:54:01;13.80;99.90
60723;DHT22;46574;52.818;6.516;2023-05-16T13:56:27;13.70;99.90
60723;DHT22;46574;52.818;6.516;2023-05-16T13:58:52;13.50;99.90
60723;DHT22;46574;52.818;6.516;2023-05-16T14:01:18;13.50;99.90
60723;DHT22;46574;52.818;6.516;2023-05-16T14:03:44;13.40;99.90
60723;DHT22;46574;52.818;6.516;2023-05-16T14:06:09;13.40;99.90
60723;DHT22;46574;52.818;6.516;2023-05-16T14:08:35;13.20;99.90
60723;DHT22;46574;52.818;6.516;2023-05-16T14:11:01;13.20;99.90
60723;DHT22;46574;52.818;6.516;2023-05-16T14:13:28;13.10;99.90
60723;DHT22;46574;52.818;6.516;2023-05-16T14:15:53;13.10;99.90
60723;DHT22;46574;52.818;6.516;2023-05-16T14:18:19;13.10;99.90
60723;DHT22;46574;52.818;6.516;2023-05-16T14:20:45;13.20;99.90
60723;DHT22;46574;52.818;6.516;2023-05-16T14:23:10;13.20;99.90
60723;DHT22;46574;52.818;6.516;2023-05-16T14:25:36;13.10;99.90
60723;DHT22;46574;52.818;6.516;2023-05-16T14:28:02;13.00;99.90
60723;DHT22;46574;52.818;6.516;2023-05-16T14:30:27;12.90;99.90
60723;DHT22;46574;52.818;6.516;2023-05-16T14:32:53;12.80;99.90
60723;DHT22;46574;52.818;6.516;2023-05-16T14:35:19;12.70;99.90
60723;DHT22;46574;52.818;6.516;2023-05-16T14:37:44;12.60;99.90
60723;DHT22;46574;52.818;6.516;2023-05-16T14:40:10;12.80;99.90
60723;DHT22;46574;52.818;6.516;2023-05-16T14:42:37;13.60;99.90
60723;DHT22;46574;52.818;6.516;2023-05-16T14:45:03;14.20;99.90
60723;DHT22;46574;52.818;6.516;2023-05-16T14:47:29;14.40;99.90
60723;DHT22;46574;52.818;6.516;2023-05-16T14:49:55;14.20;99.90
60723;DHT22;46574;52.818;6.516;2023-05-16T14:52:22;13.80;99.90
60723;DHT22;46574;52.818;6.516;2023-05-16T14:54:47;13.30;99.90
60723;DHT22;46574;52.818;6.516;2023-05-16T14:57:13;13.20;99.90
60723;DHT22;46574;52.818;6.516;2023-05-16T14:59:38;13.10;99.90
60723;DHT22;46574;52.818;6.516;2023-05-16T15:02:04;13.10;99.90
60723;DHT22;46574;52.818;6.516;2023-05-16T15:04:31;13.10;99.90
60723;DHT22;46574;52.818;6.516;2023-05-16T15:06:57;12.90;99.90
60723;DHT22;46574;52.818;6.516;2023-05-16T15:09:23;12.80;99.90
60723;DHT22;46574;52.818;6.516;2023-05-16T15:11:48;12.70;99.90
60723;DHT22;46574;52.818;6.516;2023-05-16T15:14:14;12.50;99.90
60723;DHT22;46574;52.818;6.516;2023-05-16T15:16:40;12.40;99.90
60723;DHT22;46574;52.818;6.516;2023-05-16T15:19:05;12.40;99.90
60723;DHT22;46574;52.818;6.516;2023-05-16T15:21:31;12.30;99.90
60723;DHT22;46574;52.818;6.516;2023-05-16T15:23:57;12.40;99.90
60723;DHT22;46574;52.818;6.516;2023-05-16T15:26:23;12.30;99.90
60723;DHT22;46574;52.818;6.516;2023-05-16T15:28:49;12.40;99.90
60723;DHT22;46574;52.818;6.516;2023-05-16T15:31:15;12.40;99.90
60723;DHT22;46574;52.818;6.516;2023-05-16T15:33:40;12.30;99.90
60723;DHT22;46574;52.818;6.516;2023-05-16T15:36:06;12.30;99.90
60723;DHT22;46574;52.818;6.516;2023-05-16T15:38:32;12.40;99.90
60723;DHT22;46574;52.818;6.516;2023-05-16T15:41:01;12.40;99.90
60723;DHT22;46574;52.818;6.516;2023-05-16T15:43:31;12.40;99.90
60723;DHT22;46574;52.818;6.516;2023-05-16T15:45:57;12.40;99.90
60723;DHT22;46574;52.818;6.516;2023-05-16T15:48:22;12.30;99.90
60723;DHT22;46574;52.818;6.516;2023-05-16T15:50:48;12.40;99.90
60723;DHT22;46574;52.818;6.516;2023-05-16T15:53:15;12.40;99.90
60723;DHT22;46574;52.818;6.516;2023-05-16T15:55:41;12.40;99.90